createdAt,value
2019-01-14T00:02:15.146Z,98663.00
2019-01-14T00:04:46.270Z,98660.00
2019-01-14T00:07:17.864Z,98673.00
2019-01-14T00:09:49.040Z,98674.00
2019-01-14T00:12:20.270Z,98674.00
2019-01-14T00:14:51.808Z,98672.00
2019-01-14T00:17:22.967Z,98675.00
2019-01-14T00:19:55.409Z,98688.00
2019-01-14T00:22:26.519Z,98702.00
2019-01-14T00:24:57.721Z,98699.00
2019-01-14T00:27:28.811Z,98727.00
2019-01-14T00:29:59.826Z,98716.00
2019-01-14T00:32:30.687Z,98719.00
2019-01-14T00:35:03.062Z,98720.00
2019-01-14T00:37:34.053Z,98746.00
2019-01-14T00:40:07.321Z,98749.00
2019-01-14T00:42:42.341Z,98744.00
2019-01-14T00:45:14.024Z,98795.00
2019-01-14T00:47:45.261Z,98766.00
2019-01-14T00:50:17.366Z,98767.00
2019-01-14T00:52:48.527Z,98781.00
2019-01-14T00:55:21.171Z,98807.00
2019-01-14T00:57:52.143Z,98803.00
2019-01-14T01:00:25.977Z,98802.00
2019-01-14T01:02:57.606Z,98808.00
2019-01-14T01:05:28.867Z,98822.00
2019-01-14T01:08:00.376Z,98828.00
2019-01-14T01:10:31.453Z,98837.00
2019-01-14T01:13:03.057Z,98850.00
2019-01-14T01:15:34.193Z,98863.00
2019-01-14T01:18:05.272Z,98858.00
2019-01-14T01:20:48.233Z,98908.00
2019-01-14T01:23:19.203Z,98931.00
2019-01-14T01:25:50.152Z,98907.00
2019-01-14T01:28:21.017Z,98914.00
2019-01-14T01:30:51.951Z,98911.00
2019-01-14T01:33:22.865Z,98923.00
2019-01-14T01:35:53.770Z,98947.00
2019-01-14T01:38:24.721Z,98924.00
2019-01-14T01:40:56.021Z,98948.00
2019-01-14T01:43:28.115Z,98937.00
2019-01-14T01:45:59.109Z,98948.00
2019-01-14T01:48:30.239Z,98940.00
2019-01-14T01:51:01.226Z,98954.00
2019-01-14T01:53:32.177Z,98953.00
2019-01-14T01:56:03.303Z,98959.00
2019-01-14T01:58:34.356Z,98974.00
2019-01-14T02:01:05.419Z,98966.00
2019-01-14T02:03:36.365Z,98967.00
2019-01-14T02:06:08.511Z,98972.00
2019-01-14T02:08:39.449Z,98988.00
2019-01-14T02:11:10.597Z,98991.00
2019-01-14T02:13:41.531Z,98983.00
2019-01-14T02:16:12.662Z,98983.00
2019-01-14T02:18:43.642Z,98977.00
2019-01-14T02:21:14.637Z,98995.00
2019-01-14T02:23:58.803Z,98974.00
2019-01-14T02:26:44.177Z,98992.00
2019-01-14T02:29:15.073Z,98996.00
2019-01-14T02:31:46.328Z,99002.00
2019-01-14T02:34:17.375Z,99015.00
2019-01-14T02:36:48.776Z,99019.00
2019-01-14T02:39:19.713Z,99018.00
2019-01-14T02:41:50.723Z,99017.00
2019-01-14T02:44:46.347Z,99041.00
2019-01-14T02:47:20.913Z,99033.00
2019-01-14T02:50:00.397Z,99032.00
2019-01-14T02:52:39.257Z,99053.00
2019-01-14T02:55:11.715Z,99038.00
2019-01-14T02:57:42.980Z,99047.00
2019-01-14T03:00:22.000Z,99044.00
2019-01-14T03:02:53.235Z,99038.00
2019-01-14T03:05:24.284Z,99053.00
2019-01-14T03:07:55.519Z,99060.00
2019-01-14T03:10:26.546Z,99052.00
2019-01-14T03:12:57.412Z,99038.00
2019-01-14T03:15:28.380Z,99042.00
2019-01-14T03:17:59.366Z,99050.00
2019-01-14T03:20:30.328Z,99039.00
2019-01-14T03:23:01.244Z,99043.00
2019-01-14T03:25:32.099Z,99043.00
2019-01-14T03:28:03.079Z,99069.00
2019-01-14T03:30:34.123Z,99068.00
2019-01-14T03:33:05.129Z,99066.00
2019-01-14T03:35:35.934Z,99080.00
2019-01-14T03:38:06.911Z,99102.00
2019-01-14T03:40:37.854Z,99152.00
2019-01-14T03:43:09.773Z,99151.00
2019-01-14T03:45:40.799Z,99152.00
2019-01-14T03:48:11.686Z,99135.00
2019-01-14T03:50:42.738Z,99198.00
2019-01-14T03:53:13.728Z,99150.00
2019-01-14T03:55:44.660Z,99168.00
2019-01-14T03:58:15.654Z,99216.00
2019-01-14T04:01:05.856Z,99184.00
2019-01-14T04:03:36.935Z,99176.00
2019-01-14T04:06:07.917Z,99180.00
2019-01-14T04:08:38.955Z,99191.00
2019-01-14T04:11:09.843Z,99197.00
2019-01-14T04:13:40.759Z,99178.00
2019-01-14T04:16:11.711Z,99188.00
2019-01-14T04:18:42.618Z,99176.00
2019-01-14T04:21:13.663Z,99203.00
2019-01-14T04:23:44.587Z,99202.00
2019-01-14T04:26:17.526Z,99200.00
2019-01-14T04:28:48.633Z,99197.00
2019-01-14T04:31:19.479Z,99189.00
2019-01-14T04:33:50.465Z,99206.00
2019-01-14T04:36:21.318Z,99202.00
2019-01-14T04:38:52.612Z,99194.00
2019-01-14T04:41:23.490Z,99191.00
2019-01-14T04:43:54.456Z,99183.00
2019-01-14T04:46:25.320Z,99185.00
2019-01-14T04:48:56.652Z,99181.00
2019-01-14T04:51:27.556Z,99182.00
2019-01-14T04:53:59.090Z,99193.00
2019-01-14T04:56:30.590Z,99199.00
2019-01-14T04:59:01.780Z,99186.00
2019-01-14T05:01:32.744Z,99205.00
2019-01-14T05:04:03.790Z,99212.00
2019-01-14T05:06:34.902Z,99209.00
2019-01-14T05:09:09.122Z,99219.00
2019-01-14T05:11:40.169Z,99283.00
2019-01-14T05:14:11.236Z,99235.00
2019-01-14T05:16:42.175Z,99233.00
2019-01-14T05:19:13.251Z,99250.00
2019-01-14T05:21:46.038Z,99257.00
2019-01-14T05:24:17.089Z,99258.00
2019-01-14T05:26:48.068Z,99265.00
2019-01-14T05:29:18.960Z,99243.00
2019-01-14T05:31:50.121Z,99256.00
2019-01-14T05:34:21.076Z,99275.00
2019-01-14T05:36:51.926Z,99272.00
2019-01-14T05:39:22.926Z,99278.00
2019-01-14T05:41:53.797Z,99265.00
2019-01-14T05:44:24.841Z,99271.00
2019-01-14T05:46:55.696Z,99290.00
2019-01-14T05:49:26.673Z,99275.00
2019-01-14T05:51:57.675Z,99293.00
2019-01-14T05:54:28.648Z,99286.00
2019-01-14T05:57:00.590Z,99300.00
2019-01-14T05:59:44.247Z,99313.00
2019-01-14T06:02:17.545Z,99292.00
2019-01-14T06:04:48.648Z,99293.00
2019-01-14T06:07:19.650Z,99294.00
2019-01-14T06:09:50.772Z,99292.00
2019-01-14T06:12:21.797Z,99288.00
2019-01-14T06:14:52.859Z,99315.00
2019-01-14T06:17:24.051Z,99284.00
2019-01-14T06:19:58.940Z,99299.00
2019-01-14T06:22:29.871Z,99289.00
2019-01-14T06:25:00.858Z,99292.00
2019-01-14T06:27:31.717Z,99326.00
2019-01-14T06:30:02.771Z,99325.00
2019-01-14T06:32:33.985Z,99336.00
2019-01-14T06:35:06.043Z,99334.00
2019-01-14T06:37:36.964Z,99348.00
2019-01-14T06:40:10.435Z,99337.00
2019-01-14T06:42:41.481Z,99358.00
2019-01-14T06:45:12.931Z,99350.00
2019-01-14T06:47:44.362Z,99352.00
2019-01-14T06:50:17.390Z,99347.00
2019-01-14T06:52:48.551Z,99357.00
2019-01-14T06:55:20.186Z,99360.00
2019-01-14T06:57:51.842Z,99367.00
2019-01-14T07:00:26.602Z,99374.00
2019-01-14T07:02:57.715Z,99355.00
2019-01-14T07:05:28.829Z,99375.00
2019-01-14T07:08:00.095Z,99390.00
2019-01-14T07:10:32.747Z,99386.00
2019-01-14T07:13:03.817Z,99412.00
2019-01-14T07:15:34.786Z,99404.00
2019-01-14T07:18:05.908Z,99422.00
2019-01-14T07:20:36.863Z,99448.00
2019-01-14T07:23:08.296Z,99474.00
2019-01-14T07:25:39.396Z,99475.00
2019-01-14T07:28:10.565Z,99461.00
2019-01-14T07:30:41.636Z,99453.00
2019-01-14T07:33:12.727Z,99456.00
2019-01-14T07:35:43.715Z,99454.00
2019-01-14T07:38:14.625Z,99462.00
2019-01-14T07:40:45.714Z,99438.00
2019-01-14T07:43:16.676Z,99449.00
2019-01-14T07:45:48.698Z,99453.00
2019-01-14T07:48:19.839Z,99467.00
2019-01-14T07:50:50.705Z,99465.00
2019-01-14T07:53:21.731Z,99462.00
2019-01-14T07:55:52.839Z,99467.00
2019-01-14T07:58:23.871Z,99491.00
2019-01-14T08:00:55.067Z,99489.00
2019-01-14T08:03:27.186Z,99493.00
2019-01-14T08:05:58.161Z,99487.00
2019-01-14T08:08:29.175Z,99491.00
2019-01-14T08:11:00.098Z,99492.00
2019-01-14T08:13:31.157Z,99508.00
2019-01-14T08:16:02.301Z,99523.00
2019-01-14T08:18:33.532Z,99525.00
2019-01-14T08:21:04.809Z,99536.00
2019-01-14T08:23:35.887Z,99548.00
2019-01-14T08:26:07.219Z,99550.00
2019-01-14T08:28:38.122Z,99553.00
2019-01-14T08:31:09.352Z,99554.00
2019-01-14T08:33:40.341Z,99553.00
2019-01-14T08:36:11.453Z,99554.00
2019-01-14T08:38:45.327Z,99543.00
2019-01-14T08:41:17.025Z,99552.00
2019-01-14T08:43:49.894Z,99550.00
2019-01-14T08:46:20.981Z,99553.00
2019-01-14T08:48:52.035Z,99561.00
2019-01-14T08:51:23.102Z,99561.00
2019-01-14T08:53:53.966Z,99560.00
2019-01-14T08:56:24.858Z,99564.00
2019-01-14T08:58:57.961Z,99579.00
2019-01-14T09:01:37.093Z,99566.00
2019-01-14T09:04:08.671Z,99571.00
2019-01-14T09:06:39.833Z,99576.00
2019-01-14T09:09:11.827Z,99574.00
2019-01-14T09:11:43.151Z,99572.00
2019-01-14T09:14:16.515Z,99566.00
2019-01-14T09:16:48.156Z,99563.00
2019-01-14T09:19:19.175Z,99552.00
2019-01-14T09:21:57.986Z,99548.00
2019-01-14T09:24:29.423Z,99552.00
2019-01-14T09:27:03.333Z,99551.00
2019-01-14T09:29:41.209Z,99563.00
2019-01-14T09:32:13.218Z,99574.00
2019-01-14T09:34:44.506Z,99577.00
2019-01-14T09:37:17.603Z,99575.00
2019-01-14T09:39:49.435Z,99584.00
2019-01-14T09:42:22.321Z,99591.00
2019-01-14T09:44:54.817Z,99592.00
2019-01-14T09:47:25.680Z,99598.00
2019-01-14T09:50:03.828Z,99602.00
2019-01-14T09:52:38.192Z,99603.00
2019-01-14T09:55:12.584Z,99607.00
2019-01-14T09:57:43.650Z,99624.00
2019-01-14T10:00:15.214Z,99613.00
2019-01-14T10:02:47.472Z,99621.00
2019-01-14T10:05:20.257Z,99629.00
2019-01-14T10:07:53.167Z,99607.00
2019-01-14T10:10:24.514Z,99632.00
2019-01-14T10:12:58.740Z,99622.00
2019-01-14T10:15:30.962Z,99632.00
2019-01-14T10:18:06.021Z,99633.00
2019-01-14T10:20:37.032Z,99637.00
2019-01-14T10:23:08.047Z,99626.00
2019-01-14T10:25:39.163Z,99610.00
2019-01-14T10:28:17.104Z,99638.00
2019-01-14T10:30:51.465Z,99624.00
2019-01-14T10:33:22.953Z,99634.00
2019-01-14T10:35:54.144Z,99634.00
2019-01-14T10:38:25.414Z,99645.00
2019-01-14T10:40:56.750Z,99618.00
2019-01-14T10:43:27.901Z,99646.00
2019-01-14T10:46:01.176Z,99642.00
2019-01-14T10:48:33.996Z,99636.00
2019-01-14T10:51:05.504Z,99654.00
2019-01-14T10:53:39.287Z,99641.00
2019-01-14T10:56:10.280Z,99648.00
2019-01-14T10:58:41.482Z,99655.00
2019-01-14T11:01:12.414Z,99651.00
2019-01-14T11:03:43.613Z,99654.00
2019-01-14T11:06:15.807Z,99651.00
2019-01-14T11:08:46.824Z,99676.00
2019-01-14T11:11:19.301Z,99659.00
2019-01-14T11:13:50.223Z,99649.00
2019-01-14T11:16:21.315Z,99678.00
2019-01-14T11:18:53.465Z,99649.00
2019-01-14T11:21:26.694Z,99681.00
2019-01-14T11:24:00.232Z,99667.00
2019-01-14T11:26:33.114Z,99687.00
2019-01-14T11:29:04.643Z,99680.00
2019-01-14T11:31:37.275Z,99689.00
2019-01-14T11:34:11.731Z,99673.00
2019-01-14T11:36:45.629Z,99710.00
2019-01-14T11:39:20.688Z,99714.00
2019-01-14T11:41:53.953Z,99710.00
2019-01-14T11:44:24.967Z,99698.00
2019-01-14T11:46:57.407Z,99713.00
2019-01-14T11:49:29.447Z,99698.00
2019-01-14T11:52:01.572Z,99694.00
2019-01-14T11:54:41.281Z,99730.00
2019-01-14T11:57:22.651Z,99728.00
2019-01-14T12:00:25.783Z,99733.00
2019-01-14T12:03:04.626Z,99741.00
2019-01-14T12:05:48.037Z,99735.00
2019-01-14T12:08:19.123Z,99728.00
2019-01-14T12:10:50.441Z,99733.00
2019-01-14T12:13:21.533Z,99741.00
2019-01-14T12:15:54.341Z,99737.00
2019-01-14T12:18:25.381Z,99737.00
2019-01-14T12:20:56.490Z,99751.00
2019-01-14T12:23:27.385Z,99744.00
2019-01-14T12:25:58.690Z,99741.00
2019-01-14T12:28:29.687Z,99735.00
2019-01-14T12:31:01.068Z,99771.00
2019-01-14T13:28:31.937Z,99822.00
2019-01-14T13:31:02.828Z,99844.00
2019-01-14T13:33:33.879Z,99830.00
2019-01-14T13:36:05.332Z,99836.00
2019-01-14T13:38:36.277Z,99840.00
2019-01-14T13:41:07.405Z,99846.00
2019-01-14T13:43:38.326Z,99853.00
2019-01-14T13:46:09.473Z,99851.00
2019-01-14T13:48:40.504Z,99854.00
2019-01-14T13:51:11.538Z,99853.00
2019-01-14T13:53:42.528Z,99867.00
2019-01-14T13:56:13.449Z,99848.00
2019-01-14T13:58:44.615Z,99868.00
2019-01-14T14:01:16.914Z,99855.00
2019-01-14T14:03:48.442Z,99880.00
2019-01-14T14:06:19.764Z,99881.00
2019-01-14T14:08:51.179Z,99878.00
2019-01-14T14:11:22.285Z,99878.00
2019-01-14T14:13:53.490Z,99876.00
2019-01-14T14:16:24.976Z,99886.00
2019-01-14T14:18:56.316Z,99890.00
2019-01-14T14:21:27.524Z,99883.00
2019-01-14T14:23:58.670Z,99890.00
2019-01-14T14:26:29.859Z,99893.00
2019-01-14T14:29:00.844Z,99908.00
2019-01-14T14:31:31.997Z,99926.00
2019-01-14T14:34:03.170Z,99914.00
2019-01-14T14:36:34.312Z,99928.00
2019-01-14T14:39:11.008Z,99945.00
2019-01-14T14:41:41.915Z,99932.00
2019-01-14T14:44:13.012Z,99925.00
2019-01-14T14:46:44.087Z,99920.00
2019-01-14T14:49:15.047Z,99931.00
2019-01-14T14:51:46.256Z,99941.00
2019-01-14T14:54:17.342Z,99941.00
2019-01-14T14:56:48.481Z,99943.00
2019-01-14T14:59:19.410Z,99942.00
2019-01-14T15:01:50.547Z,99951.00
2019-01-14T15:04:21.538Z,99950.00
2019-01-14T15:06:53.578Z,99966.00
2019-01-14T15:09:31.417Z,99962.00
2019-01-14T15:11:57.410Z,99969.00
2019-01-14T15:14:28.694Z,99981.00
2019-01-14T15:16:59.988Z,99979.00
2019-01-14T15:19:31.518Z,99983.00
2019-01-14T15:22:02.686Z,99976.00
2019-01-14T15:24:34.148Z,99977.00
2019-01-14T15:27:06.494Z,99975.00
2019-01-14T15:29:37.600Z,99974.00
2019-01-14T15:32:08.801Z,99973.00
2019-01-14T15:34:40.777Z,99979.00
2019-01-14T15:37:11.770Z,99980.00
2019-01-14T15:39:43.412Z,99982.00
2019-01-14T15:42:14.414Z,99992.00
2019-01-14T15:44:45.688Z,99996.00
2019-01-14T15:47:16.719Z,99997.00
2019-01-14T15:49:47.793Z,100000.00
2019-01-14T15:52:18.794Z,99999.00
2019-01-14T15:54:49.748Z,100003.00
2019-01-14T15:57:20.702Z,99998.00
2019-01-14T15:59:51.744Z,99997.00
2019-01-14T16:02:26.196Z,100008.00
2019-01-14T16:04:57.401Z,100004.00
2019-01-14T16:07:28.523Z,100016.00
2019-01-14T16:10:01.430Z,100018.00
2019-01-14T16:12:36.778Z,100029.00
2019-01-14T16:15:08.216Z,100028.00
2019-01-14T16:17:39.340Z,100025.00
2019-01-14T16:20:13.882Z,100029.00
2019-01-14T16:22:47.451Z,100036.00
2019-01-14T16:25:19.679Z,100034.00
2019-01-14T16:27:54.932Z,100044.00
2019-01-14T16:30:29.272Z,100012.00
2019-01-14T16:33:00.660Z,100043.00
2019-01-14T16:35:33.546Z,100052.00
2019-01-14T16:38:04.830Z,100054.00
2019-01-14T16:40:38.339Z,100047.00
2019-01-14T16:43:14.343Z,100050.00
2019-01-14T16:45:46.084Z,100053.00
2019-01-14T16:48:17.943Z,100044.00
2019-01-14T16:50:49.091Z,100064.00
2019-01-14T16:53:20.742Z,100053.00
2019-01-14T16:55:56.128Z,100065.00
2019-01-14T16:58:27.297Z,100067.00
2019-01-14T17:00:58.373Z,100067.00
2019-01-14T17:03:29.516Z,100076.00
2019-01-14T17:06:00.866Z,100065.00
2019-01-14T17:08:31.989Z,100085.00
2019-01-14T17:11:04.199Z,100085.00
2019-01-14T17:13:35.387Z,100084.00
2019-01-14T17:16:06.500Z,100095.00
2019-01-14T17:18:37.469Z,100113.00
2019-01-14T17:21:09.547Z,100090.00
2019-01-14T17:23:40.627Z,100101.00
2019-01-14T17:26:11.660Z,100110.00
2019-01-14T17:28:43.770Z,100115.00
2019-01-14T17:31:18.065Z,100119.00
2019-01-14T17:33:49.024Z,100121.00
2019-01-14T17:36:20.003Z,100131.00
2019-01-14T17:38:51.756Z,100128.00
2019-01-14T17:41:23.675Z,100130.00
2019-01-14T17:43:55.086Z,100135.00
2019-01-14T17:46:27.043Z,100133.00
2019-01-14T17:48:58.344Z,100133.00
2019-01-14T17:51:29.629Z,100139.00
2019-01-14T17:54:00.599Z,100150.00
2019-01-14T17:56:33.612Z,100151.00
2019-01-14T17:59:06.837Z,100159.00
2019-01-14T18:01:38.874Z,100159.00
2019-01-14T18:04:09.939Z,100175.00
2019-01-14T18:06:40.984Z,100172.00
2019-01-14T18:09:12.155Z,100174.00
2019-01-14T18:11:46.844Z,100178.00
2019-01-14T18:14:17.742Z,100182.00
2019-01-14T18:16:48.726Z,100183.00
2019-01-14T18:19:19.625Z,100176.00
2019-01-14T18:21:50.873Z,100187.00
2019-01-14T18:24:21.899Z,100197.00
2019-01-14T18:26:52.982Z,100191.00
2019-01-14T18:29:24.073Z,100188.00
2019-01-14T18:31:55.204Z,100191.00
2019-01-14T18:34:26.179Z,100192.00
2019-01-14T18:36:57.857Z,100199.00
2019-01-14T18:39:28.913Z,100199.00
2019-01-14T18:41:59.917Z,100199.00
2019-01-14T18:44:32.216Z,100209.00
2019-01-14T18:47:03.363Z,100204.00
2019-01-14T18:49:34.923Z,100215.00
2019-01-14T18:52:06.990Z,100226.00
2019-01-14T18:54:38.555Z,100212.00
2019-01-14T18:57:10.165Z,100216.00
2019-01-14T18:59:41.817Z,100198.00
2019-01-14T19:02:13.462Z,100205.00
2019-01-14T19:04:44.671Z,100226.00
2019-01-14T19:07:15.871Z,100212.00
2019-01-14T19:09:50.051Z,100207.00
2019-01-14T19:12:22.359Z,100216.00
2019-01-14T19:14:53.481Z,100222.00
2019-01-14T19:17:25.629Z,100228.00
2019-01-14T19:20:00.653Z,100231.00
2019-01-14T19:22:31.706Z,100220.00
2019-01-14T19:25:02.723Z,100233.00
2019-01-14T19:27:33.943Z,100234.00
2019-01-14T19:30:06.902Z,100237.00
2019-01-14T19:32:38.554Z,100240.00
2019-01-14T19:35:12.594Z,100254.00
2019-01-14T19:37:44.086Z,100261.00
2019-01-14T19:40:18.453Z,100262.00
2019-01-14T19:42:49.938Z,100265.00
2019-01-14T19:45:25.720Z,100266.00
2019-01-14T19:47:58.381Z,100262.00
2019-01-14T19:50:29.798Z,100270.00
2019-01-14T19:53:00.963Z,100269.00
2019-01-14T19:55:32.185Z,100274.00
2019-01-14T19:58:04.240Z,100278.00
2019-01-14T20:00:35.895Z,100278.00
2019-01-14T20:03:07.345Z,100277.00
2019-01-14T20:05:38.598Z,100276.00
2019-01-14T20:08:10.088Z,100273.00
2019-01-14T20:10:41.322Z,100280.00
2019-01-14T20:13:12.565Z,100288.00
2019-01-14T20:15:43.849Z,100291.00
2019-01-14T20:18:15.416Z,100291.00
2019-01-14T20:20:46.523Z,100297.00
2019-01-14T20:23:17.999Z,100290.00
2019-01-14T20:25:50.513Z,100293.00
2019-01-14T20:28:22.202Z,100296.00
2019-01-14T20:30:53.901Z,100288.00
2019-01-14T20:33:27.335Z,100288.00
2019-01-14T20:35:58.492Z,100294.00
2019-01-14T20:38:30.084Z,100287.00
2019-01-14T20:41:01.310Z,100300.00
2019-01-14T20:43:32.528Z,100288.00
2019-01-14T20:46:03.727Z,100295.00
2019-01-14T20:48:35.124Z,100293.00
2019-01-14T20:51:06.206Z,100302.00
2019-01-14T20:53:38.486Z,100298.00
2019-01-14T20:56:09.594Z,100299.00
2019-01-14T20:58:40.649Z,100297.00
2019-01-14T21:01:14.328Z,100295.00
2019-01-14T21:03:45.565Z,100296.00
2019-01-14T21:06:16.588Z,100299.00
2019-01-14T21:08:47.600Z,100303.00
2019-01-14T21:11:23.916Z,100307.00
2019-01-14T21:13:51.612Z,100308.00
2019-01-14T21:16:22.536Z,100300.00
2019-01-14T21:18:53.468Z,100317.00
2019-01-14T21:21:24.512Z,100315.00
2019-01-14T21:23:55.662Z,100307.00
2019-01-14T21:26:26.771Z,100306.00
2019-01-14T21:28:59.470Z,100316.00
2019-01-14T21:31:30.922Z,100323.00
2019-01-14T21:34:05.382Z,100318.00
2019-01-14T21:36:41.383Z,100322.00
2019-01-14T21:39:13.758Z,100317.00
2019-01-14T21:41:44.861Z,100323.00
2019-01-14T21:44:16.051Z,100324.00
2019-01-14T21:46:47.067Z,100321.00
2019-01-14T21:49:18.222Z,100324.00
2019-01-14T21:51:49.303Z,100318.00
2019-01-14T21:54:20.302Z,100341.00
2019-01-14T21:56:51.420Z,100346.00
2019-01-14T21:59:22.577Z,100331.00
2019-01-14T22:01:53.672Z,100340.00
2019-01-14T22:04:24.826Z,100342.00
2019-01-14T22:06:55.828Z,100340.00
2019-01-14T22:09:27.084Z,100336.00
2019-01-14T22:11:58.056Z,100338.00
2019-01-14T22:14:29.164Z,100349.00
2019-01-14T22:17:00.149Z,100343.00
2019-01-14T22:19:31.095Z,100340.00
2019-01-14T22:22:02.047Z,100349.00
2019-01-14T22:24:33.068Z,100337.00
2019-01-14T22:27:05.305Z,100339.00
2019-01-14T22:29:36.357Z,100326.00
2019-01-14T22:32:07.751Z,100336.00
2019-01-14T22:34:42.635Z,100341.00
2019-01-14T22:37:13.809Z,100339.00
2019-01-14T22:39:44.972Z,100350.00
2019-01-14T22:42:16.145Z,100343.00
2019-01-14T22:44:47.236Z,100346.00
2019-01-14T22:47:18.301Z,100337.00
2019-01-14T22:49:49.665Z,100336.00
2019-01-14T22:52:20.887Z,100345.00
2019-01-14T22:54:52.035Z,100183.00
2019-01-14T22:57:23.093Z,100337.00
2019-01-14T22:59:54.289Z,100352.00
2019-01-14T23:02:25.791Z,100353.00
2019-01-14T23:05:02.429Z,100356.00
2019-01-14T23:07:33.542Z,100346.00
2019-01-14T23:10:05.420Z,100355.00
2019-01-14T23:12:36.553Z,100368.00
2019-01-14T23:15:07.729Z,100356.00
2019-01-14T23:17:38.898Z,100363.00
2019-01-14T23:20:10.208Z,100361.00
2019-01-14T23:22:41.226Z,100370.00
2019-01-14T23:25:12.404Z,100375.00
2019-01-14T23:27:43.416Z,100359.00
2019-01-14T23:30:14.547Z,100375.00
2019-01-14T23:32:45.770Z,100373.00
2019-01-14T23:35:16.805Z,100365.00
2019-01-14T23:37:47.727Z,100364.00
2019-01-14T23:40:18.798Z,100366.00
2019-01-14T23:42:49.887Z,100362.00
2019-01-14T23:45:21.106Z,100372.00
2019-01-14T23:47:52.447Z,100364.00
2019-01-14T23:50:23.599Z,100359.00
2019-01-14T23:52:54.793Z,100364.00
2019-01-14T23:55:26.388Z,100364.00
2019-01-14T23:57:57.529Z,100355.00
